sensor_id;sensor_type;location;lat;lon;timestamp;pressure;altitude;pressure_sealevel;temperature;humidity
75359;BME280;64046;51.978;5.934;2023-05-23T00:00:00;101681.63;;;20.45;87.34
75359;BME280;64046;51.978;5.934;2023-05-23T00:02:43;101673.94;;;20.40;87.60
75359;BME280;64046;51.978;5.934;2023-05-23T00:05:16;101694.97;;;20.32;88.50
75359;BME280;64046;51.978;5.934;2023-05-23T00:07:47;101679.53;;;20.24;88.52
75359;BME280;64046;51.978;5.934;2023-05-23T00:10:19;101683.44;;;20.31;88.49
75359;BME280;64046;51.978;5.934;2023-05-23T00:12:52;101684.19;;;20.33;88.48
75359;BME280;64046;51.978;5.934;2023-05-23T00:15:45;101688.50;;;20.47;87.87
75359;BME280;64046;51.978;5.934;2023-05-23T00:18:14;101688.28;;;20.13;89.86
75359;BME280;64046;51.978;5.934;2023-05-23T00:20:53;101690.06;;;20.26;89.83
75359;BME280;64046;51.978;5.934;2023-05-23T00:23:27;101682.63;;;20.18;90.25
75359;BME280;64046;51.978;5.934;2023-05-23T00:26:01;101687.94;;;20.31;89.84
75359;BME280;64046;51.978;5.934;2023-05-23T00:28:31;101692.31;;;20.19;90.45
75359;BME280;64046;51.978;5.934;2023-05-23T00:31:11;101684.50;;;20.29;90.49
75359;BME280;64046;51.978;5.934;2023-05-23T00:33:41;101695.94;;;20.05;91.68
75359;BME280;64046;51.978;5.934;2023-05-23T00:36:17;101695.31;;;20.01;92.18
75359;BME280;64046;51.978;5.934;2023-05-23T00:38:56;101697.31;;;20.23;91.25
75359;BME280;64046;51.978;5.934;2023-05-23T00:41:33;101701.88;;;20.21;91.94
75359;BME280;64046;51.978;5.934;2023-05-23T00:44:10;101699.69;;;20.02;92.77
75359;BME280;64046;51.978;5.934;2023-05-23T00:46:42;101699.56;;;20.17;93.20
75359;BME280;64046;51.978;5.934;2023-05-23T00:49:20;101701.59;;;20.13;93.75
75359;BME280;64046;51.978;5.934;2023-05-23T00:51:53;101702.56;;;19.99;94.84
75359;BME280;64046;51.978;5.934;2023-05-23T00:54:28;101708.19;;;20.08;95.15
75359;BME280;64046;51.978;5.934;2023-05-23T00:57:06;101709.25;;;20.05;95.93
75359;BME280;64046;51.978;5.934;2023-05-23T00:59:37;101706.94;;;19.87;97.48
75359;BME280;64046;51.978;5.934;2023-05-23T01:02:07;101714.38;;;19.82;98.97
75359;BME280;64046;51.978;5.934;2023-05-23T01:04:46;101715.22;;;19.83;99.16
75359;BME280;64046;51.978;5.934;2023-05-23T01:07:21;101705.91;;;19.76;100.00
75359;BME280;64046;51.978;5.934;2023-05-23T01:09:54;101709.66;;;19.60;100.00
75359;BME280;64046;51.978;5.934;2023-05-23T01:12:33;101708.44;;;19.79;100.00
75359;BME280;64046;51.978;5.934;2023-05-23T01:15:12;101718.69;;;19.70;100.00
75359;BME280;64046;51.978;5.934;2023-05-23T01:17:58;101718.69;;;19.70;100.00
75359;BME280;64046;51.978;5.934;2023-05-23T01:20:34;101728.56;;;19.56;100.00
75359;BME280;64046;51.978;5.934;2023-05-23T01:26:23;101727.63;;;19.57;100.00
75359;BME280;64046;51.978;5.934;2023-05-23T01:29:08;101730.59;;;19.52;100.00
75359;BME280;64046;51.978;5.934;2023-05-23T01:31:45;101727.00;;;19.53;100.00
75359;BME280;64046;51.978;5.934;2023-05-23T01:34:20;101722.13;;;19.32;100.00
75359;BME280;64046;51.978;5.934;2023-05-23T01:36:53;101722.94;;;19.47;100.00
75359;BME280;64046;51.978;5.934;2023-05-23T01:39:23;101719.81;;;19.41;100.00
75359;BME280;64046;51.978;5.934;2023-05-23T01:41:53;101718.13;;;19.40;100.00
75359;BME280;64046;51.978;5.934;2023-05-23T01:44:26;101728.44;;;19.57;100.00
75359;BME280;64046;51.978;5.934;2023-05-23T01:47:02;101725.41;;;19.63;100.00
75359;BME280;64046;51.978;5.934;2023-05-23T01:49:36;101722.09;;;19.60;100.00
75359;BME280;64046;51.978;5.934;2023-05-23T01:52:07;101716.13;;;19.56;100.00
75359;BME280;64046;51.978;5.934;2023-05-23T01:54:39;101722.63;;;19.52;100.00
75359;BME280;64046;51.978;5.934;2023-05-23T01:57:15;101734.53;;;19.59;100.00
75359;BME280;64046;51.978;5.934;2023-05-23T01:59:48;101733.25;;;19.52;100.00
75359;BME280;64046;51.978;5.934;2023-05-23T02:02:20;101731.66;;;19.49;100.00
75359;BME280;64046;51.978;5.934;2023-05-23T02:04:50;101729.06;;;19.35;100.00
75359;BME280;64046;51.978;5.934;2023-05-23T02:07:20;101734.94;;;19.40;100.00
75359;BME280;64046;51.978;5.934;2023-05-23T02:09:54;101734.72;;;19.43;100.00
75359;BME280;64046;51.978;5.934;2023-05-23T02:12:24;101746.00;;;19.47;100.00
75359;BME280;64046;51.978;5.934;2023-05-23T02:14:57;101746.78;;;19.62;100.00
75359;BME280;64046;51.978;5.934;2023-05-23T02:17:26;101741.13;;;19.53;100.00
75359;BME280;64046;51.978;5.934;2023-05-23T02:20:01;101753.00;;;19.48;100.00
75359;BME280;64046;51.978;5.934;2023-05-23T02:22:33;101739.00;;;19.46;100.00
75359;BME280;64046;51.978;5.934;2023-05-23T02:25:05;101747.50;;;19.51;100.00
75359;BME280;64046;51.978;5.934;2023-05-23T02:27:36;101747.25;;;19.41;100.00
75359;BME280;64046;51.978;5.934;2023-05-23T02:30:09;101750.59;;;19.58;100.00
75359;BME280;64046;51.978;5.934;2023-05-23T02:32:42;101748.44;;;19.50;100.00
75359;BME280;64046;51.978;5.934;2023-05-23T02:35:12;101757.75;;;19.30;100.00
75359;BME280;64046;51.978;5.934;2023-05-23T02:37:45;101757.84;;;19.28;100.00
75359;BME280;64046;51.978;5.934;2023-05-23T02:40:16;101754.25;;;19.29;100.00
75359;BME280;64046;51.978;5.934;2023-05-23T02:42:45;101755.72;;;19.21;100.00
75359;BME280;64046;51.978;5.934;2023-05-23T02:45:19;101772.25;;;19.39;100.00
75359;BME280;64046;51.978;5.934;2023-05-23T02:47:50;101773.06;;;19.26;100.00
75359;BME280;64046;51.978;5.934;2023-05-23T02:50:20;101771.34;;;19.25;100.00
75359;BME280;64046;51.978;5.934;2023-05-23T02:52:53;101773.09;;;19.39;100.00
75359;BME280;64046;51.978;5.934;2023-05-23T02:55:23;101777.91;;;19.19;100.00
75359;BME280;64046;51.978;5.934;2023-05-23T02:57:57;101773.16;;;19.25;100.00
75359;BME280;64046;51.978;5.934;2023-05-23T03:00:32;101774.03;;;19.38;100.00
75359;BME280;64046;51.978;5.934;2023-05-23T03:03:07;101772.00;;;19.29;100.00
75359;BME280;64046;51.978;5.934;2023-05-23T03:05:40;101768.31;;;19.31;100.00
75359;BME280;64046;51.978;5.934;2023-05-23T03:08:11;101758.00;;;19.12;100.00
75359;BME280;64046;51.978;5.934;2023-05-23T03:10:52;101762.22;;;19.29;100.00
75359;BME280;64046;51.978;5.934;2023-05-23T03:13:25;101764.31;;;19.24;100.00
75359;BME280;64046;51.978;5.934;2023-05-23T03:16:00;101766.06;;;19.38;100.00
75359;BME280;64046;51.978;5.934;2023-05-23T03:18:30;101770.50;;;19.25;100.00
75359;BME280;64046;51.978;5.934;2023-05-23T03:21:01;101770.84;;;19.06;100.00
75359;BME280;64046;51.978;5.934;2023-05-23T03:23:31;101769.50;;;19.13;100.00
75359;BME280;64046;51.978;5.934;2023-05-23T03:26:03;101785.31;;;18.87;100.00
75359;BME280;64046;51.978;5.934;2023-05-23T03:28:34;101779.41;;;18.82;100.00
75359;BME280;64046;51.978;5.934;2023-05-23T03:31:08;101793.63;;;18.95;100.00
75359;BME280;64046;51.978;5.934;2023-05-23T03:33:40;101785.75;;;18.94;100.00
75359;BME280;64046;51.978;5.934;2023-05-23T03:36:11;101785.03;;;18.77;100.00
75359;BME280;64046;51.978;5.934;2023-05-23T03:38:41;101780.34;;;18.81;100.00
75359;BME280;64046;51.978;5.934;2023-05-23T03:41:14;101779.50;;;18.80;100.00
75359;BME280;64046;51.978;5.934;2023-05-23T03:43:44;101785.75;;;18.79;100.00
75359;BME280;64046;51.978;5.934;2023-05-23T03:46:18;101785.50;;;18.98;100.00
75359;BME280;64046;51.978;5.934;2023-05-23T03:48:51;101785.38;;;19.00;100.00
75359;BME280;64046;51.978;5.934;2023-05-23T03:51:22;101797.53;;;18.90;100.00
75359;BME280;64046;51.978;5.934;2023-05-23T03:53:54;101789.84;;;18.85;100.00
75359;BME280;64046;51.978;5.934;2023-05-23T03:56:28;101800.56;;;18.98;100.00
75359;BME280;64046;51.978;5.934;2023-05-23T03:58:59;101794.50;;;18.96;100.00
75359;BME280;64046;51.978;5.934;2023-05-23T04:01:34;101802.16;;;19.00;100.00
75359;BME280;64046;51.978;5.934;2023-05-23T04:04:10;101812.50;;;19.05;100.00
75359;BME280;64046;51.978;5.934;2023-05-23T04:06:40;101802.00;;;18.89;100.00
75359;BME280;64046;51.978;5.934;2023-05-23T04:09:10;101808.16;;;18.90;100.00
75359;BME280;64046;51.978;5.934;2023-05-23T04:11:45;101808.53;;;18.98;100.00
75359;BME280;64046;51.978;5.934;2023-05-23T04:14:15;101812.91;;;18.99;100.00
75359;BME280;64046;51.978;5.934;2023-05-23T04:16:49;101811.59;;;19.19;99.08
75359;BME280;64046;51.978;5.934;2023-05-23T04:19:20;101817.81;;;19.05;99.08
75359;BME280;64046;51.978;5.934;2023-05-23T04:21:52;101815.91;;;19.07;99.03
75359;BME280;64046;51.978;5.934;2023-05-23T04:24:23;101815.91;;;19.07;98.89
75359;BME280;64046;51.978;5.934;2023-05-23T04:26:54;101821.22;;;19.07;98.20
75359;BME280;64046;51.978;5.934;2023-05-23T04:29:26;101814.47;;;19.16;98.04
75359;BME280;64046;51.978;5.934;2023-05-23T04:32:01;101822.09;;;19.35;96.72
75359;BME280;64046;51.978;5.934;2023-05-23T04:34:34;101826.03;;;19.15;96.92
75359;BME280;64046;51.978;5.934;2023-05-23T04:37:04;101838.41;;;19.01;97.01
75359;BME280;64046;51.978;5.934;2023-05-23T04:39:37;101843.91;;;19.13;96.57
75359;BME280;64046;51.978;5.934;2023-05-23T04:42:27;101847.59;;;19.10;96.31
75359;BME280;64046;51.978;5.934;2023-05-23T04:45:09;101845.97;;;19.08;96.11
75359;BME280;64046;51.978;5.934;2023-05-23T04:48:00;101850.72;;;19.02;95.87
75359;BME280;64046;51.978;5.934;2023-05-23T04:50:36;101848.56;;;18.80;96.27
75359;BME280;64046;51.978;5.934;2023-05-23T04:53:10;101850.47;;;18.93;95.61
75359;BME280;64046;51.978;5.934;2023-05-23T04:55:40;101850.72;;;18.74;96.16
75359;BME280;64046;51.978;5.934;2023-05-23T04:58:16;101861.66;;;18.69;96.12
75359;BME280;64046;51.978;5.934;2023-05-23T05:00:46;101868.78;;;18.68;96.14
75359;BME280;64046;51.978;5.934;2023-05-23T05:03:21;101864.50;;;18.80;95.71
75359;BME280;64046;51.978;5.934;2023-05-23T05:05:54;101870.75;;;18.79;95.71
75359;BME280;64046;51.978;5.934;2023-05-23T05:08:27;101870.75;;;18.79;95.86
75359;BME280;64046;51.978;5.934;2023-05-23T05:10:57;101872.66;;;18.63;96.18
75359;BME280;64046;51.978;5.934;2023-05-23T05:13:28;101893.31;;;18.72;96.50
75359;BME280;64046;51.978;5.934;2023-05-23T05:16:00;101881.06;;;18.70;97.01
75359;BME280;64046;51.978;5.934;2023-05-23T05:18:34;101886.03;;;18.76;96.73
75359;BME280;64046;51.978;5.934;2023-05-23T05:21:07;101885.72;;;18.66;97.25
75359;BME280;64046;51.978;5.934;2023-05-23T05:23:42;101896.03;;;18.42;98.44
75359;BME280;64046;51.978;5.934;2023-05-23T05:26:15;101898.28;;;18.33;99.32
75359;BME280;64046;51.978;5.934;2023-05-23T05:28:53;101898.69;;;18.42;99.40
75359;BME280;64046;51.978;5.934;2023-05-23T05:31:26;101905.19;;;18.22;100.00
75359;BME280;64046;51.978;5.934;2023-05-23T05:33:59;101905.78;;;18.27;100.00
75359;BME280;64046;51.978;5.934;2023-05-23T05:36:28;101897.56;;;18.01;100.00
75359;BME280;64046;51.978;5.934;2023-05-23T05:39:00;101914.50;;;17.98;100.00
75359;BME280;64046;51.978;5.934;2023-05-23T05:41:33;101919.75;;;18.14;100.00
75359;BME280;64046;51.978;5.934;2023-05-23T05:44:06;101913.56;;;18.00;100.00
75359;BME280;64046;51.978;5.934;2023-05-23T05:46:36;101911.34;;;17.92;100.00
75359;BME280;64046;51.978;5.934;2023-05-23T05:49:09;101924.75;;;18.05;100.00
75359;BME280;64046;51.978;5.934;2023-05-23T05:51:41;101924.00;;;17.87;100.00
75359;BME280;64046;51.978;5.934;2023-05-23T05:54:12;101925.69;;;17.88;100.00
75359;BME280;64046;51.978;5.934;2023-05-23T05:56:43;101928.53;;;17.85;100.00
75359;BME280;64046;51.978;5.934;2023-05-23T05:59:13;101929.53;;;17.82;100.00
75359;BME280;64046;51.978;5.934;2023-05-23T06:01:51;101928.59;;;17.99;99.17
75359;BME280;64046;51.978;5.934;2023-05-23T06:04:24;101931.63;;;17.93;99.43
75359;BME280;64046;51.978;5.934;2023-05-23T06:06:55;101931.53;;;17.78;99.71
75359;BME280;64046;51.978;5.934;2023-05-23T06:09:27;101943.69;;;17.83;99.54
75359;BME280;64046;51.978;5.934;2023-05-23T06:11:56;101947.63;;;17.75;98.99
75359;BME280;64046;51.978;5.934;2023-05-23T06:14:28;101959.91;;;17.76;98.70
75359;BME280;64046;51.978;5.934;2023-05-23T06:16:58;101967.03;;;17.76;98.62
75359;BME280;64046;51.978;5.934;2023-05-23T06:19:30;101968.03;;;17.89;97.61
75359;BME280;64046;51.978;5.934;2023-05-23T06:22:07;101962.25;;;17.83;97.36
75359;BME280;64046;51.978;5.934;2023-05-23T06:24:37;101967.03;;;17.76;97.61
75359;BME280;64046;51.978;5.934;2023-05-23T06:27:07;101962.25;;;17.67;97.77
75359;BME280;64046;51.978;5.934;2023-05-23T06:29:37;101958.47;;;17.71;97.39
75359;BME280;64046;51.978;5.934;2023-05-23T06:32:08;101969.16;;;17.69;96.32
75359;BME280;64046;51.978;5.934;2023-05-23T06:34:42;101967.63;;;17.81;94.89
75359;BME280;64046;51.978;5.934;2023-05-23T06:37:11;101976.69;;;17.61;94.08
75359;BME280;64046;51.978;5.934;2023-05-23T06:39:52;101984.81;;;17.74;92.59
75359;BME280;64046;51.978;5.934;2023-05-23T06:42:21;101972.69;;;17.54;93.46
75359;BME280;64046;51.978;5.934;2023-05-23T06:45:12;101985.41;;;17.79;90.76
75359;BME280;64046;51.978;5.934;2023-05-23T06:47:43;102011.47;;;17.55;91.18
75359;BME280;64046;51.978;5.934;2023-05-23T06:50:18;101995.75;;;17.68;89.59
75359;BME280;64046;51.978;5.934;2023-05-23T06:52:52;102005.34;;;17.70;88.81
75359;BME280;64046;51.978;5.934;2023-05-23T06:55:22;101998.41;;;17.52;88.02
75359;BME280;64046;51.978;5.934;2023-05-23T06:57:58;102003.16;;;17.45;86.46
75359;BME280;64046;51.978;5.934;2023-05-23T07:00:31;102002.50;;;17.57;85.79
75359;BME280;64046;51.978;5.934;2023-05-23T07:03:31;102005.50;;;17.51;84.30
75359;BME280;64046;51.978;5.934;2023-05-23T07:06:10;102007.31;;;17.67;82.71
75359;BME280;64046;51.978;5.934;2023-05-23T07:08:53;102019.25;;;17.58;82.36
75359;BME280;64046;51.978;5.934;2023-05-23T07:11:24;102018.16;;;17.62;81.10
75359;BME280;64046;51.978;5.934;2023-05-23T07:13:58;102022.13;;;17.87;78.45
75359;BME280;64046;51.978;5.934;2023-05-23T07:16:45;102013.84;;;17.93;76.92
75359;BME280;64046;51.978;5.934;2023-05-23T07:19:16;102013.91;;;18.07;74.68
75359;BME280;64046;51.978;5.934;2023-05-23T07:22:08;102014.31;;;18.31;71.79
75359;BME280;64046;51.978;5.934;2023-05-23T07:24:43;102025.06;;;18.44;70.89
75359;BME280;64046;51.978;5.934;2023-05-23T07:27:12;102015.66;;;18.39;69.68
75359;BME280;64046;51.978;5.934;2023-05-23T07:29:48;102021.19;;;18.50;68.52
75359;BME280;64046;51.978;5.934;2023-05-23T07:32:20;102012.91;;;18.40;68.65
75359;BME280;64046;51.978;5.934;2023-05-23T07:34:52;102015.50;;;18.56;68.21
75359;BME280;64046;51.978;5.934;2023-05-23T07:37:36;102019.94;;;18.86;66.95
75359;BME280;64046;51.978;5.934;2023-05-23T07:40:21;102023.69;;;19.12;64.49
75359;BME280;64046;51.978;5.934;2023-05-23T07:42:51;102034.44;;;18.80;63.65
75359;BME280;64046;51.978;5.934;2023-05-23T07:45:28;102045.81;;;18.82;62.18
75359;BME280;64046;51.978;5.934;2023-05-23T07:48:05;102047.13;;;18.75;62.03
75359;BME280;64046;51.978;5.934;2023-05-23T07:50:34;102036.13;;;18.67;61.43
75359;BME280;64046;51.978;5.934;2023-05-23T07:53:09;102047.09;;;18.91;60.49
75359;BME280;64046;51.978;5.934;2023-05-23T07:55:40;102036.81;;;18.85;60.62
75359;BME280;64046;51.978;5.934;2023-05-23T07:58:24;102048.63;;;18.95;61.03
75359;BME280;64046;51.978;5.934;2023-05-23T08:00:54;102036.22;;;19.10;61.28
75359;BME280;64046;51.978;5.934;2023-05-23T08:03:51;102059.38;;;19.08;61.93
75359;BME280;64046;51.978;5.934;2023-05-23T08:06:36;102055.03;;;19.07;62.36
75359;BME280;64046;51.978;5.934;2023-05-23T08:09:12;102053.78;;;18.98;62.59
75359;BME280;64046;51.978;5.934;2023-05-23T08:11:49;102059.00;;;18.84;63.90
75359;BME280;64046;51.978;5.934;2023-05-23T08:14:25;102060.88;;;18.98;63.99
75359;BME280;64046;51.978;5.934;2023-05-23T08:17:22;102080.19;;;18.70;64.65
75359;BME280;64046;51.978;5.934;2023-05-23T08:19:56;102081.56;;;18.77;65.18
75359;BME280;64046;51.978;5.934;2023-05-23T08:22:28;102081.41;;;18.64;65.52
75359;BME280;64046;51.978;5.934;2023-05-23T08:25:00;102080.84;;;18.59;65.45
75359;BME280;64046;51.978;5.934;2023-05-23T08:27:35;102078.59;;;18.67;65.32
75359;BME280;64046;51.978;5.934;2023-05-23T08:30:15;102069.69;;;18.68;64.91
75359;BME280;64046;51.978;5.934;2023-05-23T08:32:53;102085.06;;;18.93;63.68
75359;BME280;64046;51.978;5.934;2023-05-23T08:35:25;102078.44;;;19.00;62.44
75359;BME280;64046;51.978;5.934;2023-05-23T08:37:59;102089.19;;;19.13;61.26
75359;BME280;64046;51.978;5.934;2023-05-23T08:40:35;102084.91;;;19.54;59.93
75359;BME280;64046;51.978;5.934;2023-05-23T08:43:13;102084.56;;;19.75;58.93
75359;BME280;64046;51.978;5.934;2023-05-23T08:45:44;102093.16;;;19.78;57.40
75359;BME280;64046;51.978;5.934;2023-05-23T08:48:16;102101.25;;;19.91;55.18
75359;BME280;64046;51.978;5.934;2023-05-23T08:51:09;102089.44;;;20.10;53.59
75359;BME280;64046;51.978;5.934;2023-05-23T08:53:41;102096.63;;;19.95;54.44
75359;BME280;64046;51.978;5.934;2023-05-23T08:56:16;102105.03;;;20.01;53.84
75359;BME280;64046;51.978;5.934;2023-05-23T08:58:52;102107.25;;;19.95;55.33
75359;BME280;64046;51.978;5.934;2023-05-23T09:01:26;102106.47;;;19.93;55.26
75359;BME280;64046;51.978;5.934;2023-05-23T09:04:06;102112.69;;;19.79;55.75
75359;BME280;64046;51.978;5.934;2023-05-23T09:07:09;102099.84;;;19.57;56.02
75359;BME280;64046;51.978;5.934;2023-05-23T09:10:07;102104.13;;;19.59;56.13
75359;BME280;64046;51.978;5.934;2023-05-23T09:12:40;102104.09;;;19.74;55.66
75359;BME280;64046;51.978;5.934;2023-05-23T09:15:12;102110.56;;;19.55;55.44
75359;BME280;64046;51.978;5.934;2023-05-23T09:17:44;102108.75;;;19.70;55.21
75359;BME280;64046;51.978;5.934;2023-05-23T09:20:15;102122.16;;;19.68;53.97
75359;BME280;64046;51.978;5.934;2023-05-23T09:22:56;102118.34;;;19.58;53.40
75359;BME280;64046;51.978;5.934;2023-05-23T09:25:27;102119.59;;;19.67;53.27
75359;BME280;64046;51.978;5.934;2023-05-23T09:28:01;102133.75;;;19.67;52.23
75359;BME280;64046;51.978;5.934;2023-05-23T09:30:45;102122.25;;;19.67;51.97
75359;BME280;64046;51.978;5.934;2023-05-23T09:33:18;102122.81;;;19.72;52.10
75359;BME280;64046;51.978;5.934;2023-05-23T09:35:55;102136.63;;;19.79;52.39
75359;BME280;64046;51.978;5.934;2023-05-23T09:38:44;102135.84;;;19.91;51.56
75359;BME280;64046;51.978;5.934;2023-05-23T09:41:21;102125.59;;;19.85;51.54
75359;BME280;64046;51.978;5.934;2023-05-23T09:43:57;102129.09;;;19.85;50.79
75359;BME280;64046;51.978;5.934;2023-05-23T09:46:34;102128.06;;;19.88;50.78
75359;BME280;64046;51.978;5.934;2023-05-23T09:49:16;102134.22;;;19.88;50.24
75359;BME280;64046;51.978;5.934;2023-05-23T09:51:59;102131.19;;;19.95;50.22
75359;BME280;64046;51.978;5.934;2023-05-23T09:54:34;102123.88;;;19.84;50.66
75359;BME280;64046;51.978;5.934;2023-05-23T09:57:08;102132.41;;;20.03;50.14
75359;BME280;64046;51.978;5.934;2023-05-23T09:59:58;102136.94;;;20.16;50.17
75359;BME280;64046;51.978;5.934;2023-05-23T10:03:07;102140.44;;;20.31;48.66
75359;BME280;64046;51.978;5.934;2023-05-23T10:05:45;102134.59;;;20.11;49.00
75359;BME280;64046;51.978;5.934;2023-05-23T10:08:22;102122.50;;;20.20;48.75
75359;BME280;64046;51.978;5.934;2023-05-23T10:14:08;102120.56;;;20.36;48.37
75359;BME280;64046;51.978;5.934;2023-05-23T10:16:48;102120.31;;;20.54;47.55
75359;BME280;64046;51.978;5.934;2023-05-23T10:19:28;102122.28;;;20.65;46.98
75359;BME280;64046;51.978;5.934;2023-05-23T10:22:08;102124.81;;;20.66;46.46
75359;BME280;64046;51.978;5.934;2023-05-23T10:24:41;102125.50;;;20.70;46.35
75359;BME280;64046;51.978;5.934;2023-05-23T10:27:14;102131.41;;;20.61;45.90
75359;BME280;64046;51.978;5.934;2023-05-23T10:29:50;102141.63;;;20.81;45.25
75359;BME280;64046;51.978;5.934;2023-05-23T10:32:23;102126.47;;;20.82;44.40
75359;BME280;64046;51.978;5.934;2023-05-23T10:34:58;102119.69;;;20.78;43.97
75359;BME280;64046;51.978;5.934;2023-05-23T10:37:34;102138.50;;;20.74;43.18
75359;BME280;64046;51.978;5.934;2023-05-23T10:40:12;102123.38;;;20.75;42.83
75359;BME280;64046;51.978;5.934;2023-05-23T10:42:51;102125.31;;;20.86;42.91
75359;BME280;64046;51.978;5.934;2023-05-23T10:45:29;102144.66;;;21.02;42.86
75359;BME280;64046;51.978;5.934;2023-05-23T10:48:31;102130.06;;;21.08;42.16
75359;BME280;64046;51.978;5.934;2023-05-23T10:51:09;102127.38;;;20.95;42.59
75359;BME280;64046;51.978;5.934;2023-05-23T10:53:42;102141.63;;;20.81;41.91
75359;BME280;64046;51.978;5.934;2023-05-23T10:56:19;102124.41;;;21.00;41.72
75359;BME280;64046;51.978;5.934;2023-05-23T10:58:54;102134.94;;;21.01;41.93
75359;BME280;64046;51.978;5.934;2023-05-23T11:01:24;102135.13;;;20.85;42.13
75359;BME280;64046;51.978;5.934;2023-05-23T11:04:04;102131.25;;;21.17;41.45
75359;BME280;64046;51.978;5.934;2023-05-23T11:06:37;102132.31;;;21.27;41.31
75359;BME280;64046;51.978;5.934;2023-05-23T11:09:10;102131.75;;;21.22;41.57
75359;BME280;64046;51.978;5.934;2023-05-23T11:11:59;102134.03;;;21.28;41.96
75359;BME280;64046;51.978;5.934;2023-05-23T11:14:54;102128.91;;;21.25;42.14
75359;BME280;64046;51.978;5.934;2023-05-23T11:17:30;102137.63;;;21.14;42.58
75359;BME280;64046;51.978;5.934;2023-05-23T11:20:05;102126.03;;;21.15;43.03
75359;BME280;64046;51.978;5.934;2023-05-23T11:22:39;102127.81;;;21.15;42.29
75359;BME280;64046;51.978;5.934;2023-05-23T11:25:39;102124.75;;;21.34;41.72
75359;BME280;64046;51.978;5.934;2023-05-23T11:28:11;102124.44;;;21.25;42.27
75359;BME280;64046;51.978;5.934;2023-05-23T11:30:46;102130.94;;;21.34;41.40
75359;BME280;64046;51.978;5.934;2023-05-23T11:33:20;102128.03;;;21.50;41.27
75359;BME280;64046;51.978;5.934;2023-05-23T11:35:55;102134.38;;;21.49;41.23
75359;BME280;64046;51.978;5.934;2023-05-23T11:38:28;102138.91;;;21.21;41.67
75359;BME280;64046;51.978;5.934;2023-05-23T11:41:07;102137.53;;;21.29;41.74
75359;BME280;64046;51.978;5.934;2023-05-23T11:46:29;102147.13;;;21.18;41.60
75359;BME280;64046;51.978;5.934;2023-05-23T11:49:09;102149.59;;;21.34;40.96
75359;BME280;64046;51.978;5.934;2023-05-23T11:51:42;102137.09;;;21.35;41.39
75359;BME280;64046;51.978;5.934;2023-05-23T11:54:15;102128.25;;;21.34;41.29
75359;BME280;64046;51.978;5.934;2023-05-23T11:56:49;102141.31;;;21.52;40.38
75359;BME280;64046;51.978;5.934;2023-05-23T11:59:30;102151.69;;;21.56;41.01
75359;BME280;64046;51.978;5.934;2023-05-23T12:02:10;102147.78;;;21.48;41.61
75359;BME280;64046;51.978;5.934;2023-05-23T12:07:32;102151.53;;;21.32;41.68
75359;BME280;64046;51.978;5.934;2023-05-23T12:10:05;102146.81;;;21.23;41.53
75359;BME280;64046;51.978;5.934;2023-05-23T12:12:36;102145.22;;;21.33;41.40
75359;BME280;64046;51.978;5.934;2023-05-23T12:15:11;102139.69;;;21.36;41.19
75359;BME280;64046;51.978;5.934;2023-05-23T12:17:44;102152.47;;;21.44;40.55
75359;BME280;64046;51.978;5.934;2023-05-23T12:20:21;102147.16;;;21.44;40.37
75359;BME280;64046;51.978;5.934;2023-05-23T12:22:53;102153.53;;;21.41;40.32
75359;BME280;64046;51.978;5.934;2023-05-23T12:25:29;102159.00;;;21.40;40.29
75359;BME280;64046;51.978;5.934;2023-05-23T12:28:06;102156.09;;;21.30;40.16
75359;BME280;64046;51.978;5.934;2023-05-23T12:31:00;102164.09;;;21.30;39.41
75359;BME280;64046;51.978;5.934;2023-05-23T12:33:41;102162.28;;;21.18;39.24
75359;BME280;64046;51.978;5.934;2023-05-23T12:36:28;102164.53;;;21.24;38.93
75359;BME280;64046;51.978;5.934;2023-05-23T12:39:05;102162.69;;;21.24;38.95
75359;BME280;64046;51.978;5.934;2023-05-23T12:41:44;102171.56;;;21.25;39.76
75359;BME280;64046;51.978;5.934;2023-05-23T12:44:14;102162.19;;;21.32;39.62
75359;BME280;64046;51.978;5.934;2023-05-23T12:46:47;102170.41;;;21.42;39.36
75359;BME280;64046;51.978;5.934;2023-05-23T12:49:19;102166.66;;;21.32;38.76
75359;BME280;64046;51.978;5.934;2023-05-23T12:51:52;102179.25;;;21.30;39.07
75359;BME280;64046;51.978;5.934;2023-05-23T12:54:27;102165.59;;;21.47;38.71
75359;BME280;64046;51.978;5.934;2023-05-23T12:57:09;102177.22;;;21.46;38.35
75359;BME280;64046;51.978;5.934;2023-05-23T12:59:38;102195.66;;;21.11;38.76
75359;BME280;64046;51.978;5.934;2023-05-23T13:02:11;102182.50;;;21.07;38.73
75359;BME280;64046;51.978;5.934;2023-05-23T13:04:44;102184.06;;;20.97;39.10
75359;BME280;64046;51.978;5.934;2023-05-23T13:07:20;102176.84;;;20.99;39.41
75359;BME280;64046;51.978;5.934;2023-05-23T13:09:55;102171.56;;;21.25;39.07
75359;BME280;64046;51.978;5.934;2023-05-23T13:12:29;102180.84;;;21.32;39.31
75359;BME280;64046;51.978;5.934;2023-05-23T13:15:00;102168.34;;;21.20;39.51
75359;BME280;64046;51.978;5.934;2023-05-23T13:17:29;102169.41;;;21.17;39.19
75359;BME280;64046;51.978;5.934;2023-05-23T13:20:01;102175.06;;;21.13;39.43
75359;BME280;64046;51.978;5.934;2023-05-23T13:22:33;102178.38;;;21.16;39.40
75359;BME280;64046;51.978;5.934;2023-05-23T13:25:12;102168.47;;;21.44;38.77
75359;BME280;64046;51.978;5.934;2023-05-23T13:27:52;102169.66;;;21.40;38.65
75359;BME280;64046;51.978;5.934;2023-05-23T13:30:24;102173.38;;;21.24;38.05
75359;BME280;64046;51.978;5.934;2023-05-23T13:33:02;102176.66;;;21.15;37.96
75359;BME280;64046;51.978;5.934;2023-05-23T13:35:39;102177.50;;;21.16;38.40
75359;BME280;64046;51.978;5.934;2023-05-23T13:38:12;102180.16;;;21.03;38.81
75359;BME280;64046;51.978;5.934;2023-05-23T13:40:47;102189.47;;;21.23;38.66